Time;durP1;ratioP1;P1;durP2;ratioP2;P2;SDS_P1;SDS_P2;PMS_P1;PMS_P2;Temp;Humidity;BMP_temperature;BMP_pressure;BME280_temperature;BME280_humidity;BME280_pressure;Samples;Min_cycle;Max_cycle;Signal;HPM_P1;HPM_P2
2022/01/07 00:00:37;;;;;;;20.52;12.00;;;3.50;99.90;;;;;;4920130;28;89850;-42
2022/01/07 00:03:03;;;;;;;14.32;10.95;;;3.60;99.90;;;;;;4921453;28;89496;-39
2022/01/07 00:05:30;;;;;;;21.90;12.50;;;3.60;99.90;;;;;;4918892;28;89391;-39
2022/01/07 00:07:55;;;;;;;20.02;10.60;;;3.60;99.90;;;;;;4920306;28;90387;-42
2022/01/07 00:10:22;;;;;;;19.33;10.57;;;3.70;99.90;;;;;;4921456;28;87957;-40
2022/01/07 00:12:49;;;;;;;16.63;10.45;;;3.70;99.90;;;;;;4920700;28;90051;-40
2022/01/07 00:15:16;;;;;;;22.92;12.27;;;3.80;99.90;;;;;;4920925;28;89820;-38
2022/01/07 00:17:42;;;;;;;15.30;10.27;;;3.70;99.90;;;;;;4920579;28;90144;-36
2022/01/07 00:20:10;;;;;;;17.65;10.30;;;3.70;99.90;;;;;;4920371;28;90221;-41
2022/01/07 00:22:36;;;;;;;21.38;11.07;;;3.70;99.90;;;;;;4920122;28;90827;-34
2022/01/07 00:25:03;;;;;;;17.65;8.85;;;3.70;99.90;;;;;;4921325;28;90254;-39
2022/01/07 00:27:28;;;;;;;13.02;9.45;;;3.70;99.90;;;;;;4920651;28;89560;-37
2022/01/07 00:29:54;;;;;;;22.60;11.00;;;3.70;99.90;;;;;;4924367;28;88958;-40
2022/01/07 00:32:20;;;;;;;18.67;9.15;;;3.70;99.90;;;;;;4924406;28;89251;-36
2022/01/07 00:34:45;;;;;;;11.20;7.85;;;3.70;99.90;;;;;;4924603;28;89702;-41
2022/01/07 00:37:11;;;;;;;13.70;9.75;;;3.80;99.90;;;;;;4924905;28;89807;-44
2022/01/07 00:39:37;;;;;;;15.20;9.07;;;3.90;99.90;;;;;;4924902;28;88332;-39
2022/01/07 00:42:04;;;;;;;15.35;8.57;;;3.90;99.90;;;;;;4924409;28;90953;-47
2022/01/07 00:44:29;;;;;;;12.20;8.02;;;3.80;99.90;;;;;;4924200;28;92528;-44
2022/01/07 00:46:55;;;;;;;16.45;8.63;;;3.80;99.90;;;;;;4924190;28;90336;-34
2022/01/07 00:49:22;;;;;;;11.93;7.72;;;3.80;99.90;;;;;;4924491;28;88260;-40
2022/01/07 00:51:49;;;;;;;14.30;6.78;;;3.80;99.90;;;;;;4924757;28;90746;-37
2022/01/07 00:54:15;;;;;;;10.00;8.48;;;3.80;99.90;;;;;;4924317;28;89066;-41
2022/01/07 00:56:41;;;;;;;17.02;8.52;;;3.80;99.90;;;;;;4924171;28;89652;-42
2022/01/07 00:59:06;;;;;;;14.35;8.70;;;3.80;99.90;;;;;;4924902;28;88260;-42
2022/01/07 01:01:32;;;;;;;12.27;7.68;;;3.80;99.90;;;;;;4923661;28;89974;-41
2022/01/07 01:03:58;;;;;;;11.38;7.68;;;3.70;99.90;;;;;;4923944;28;89932;-39
2022/01/07 01:06:23;;;;;;;18.88;9.05;;;3.70;99.90;;;;;;4923330;28;89823;-37
2022/01/07 01:08:49;;;;;;;13.95;7.85;;;3.60;99.90;;;;;;4924254;28;90410;-43
2022/01/07 01:11:14;;;;;;;11.90;8.13;;;3.60;99.90;;;;;;4923998;28;90737;-45
2022/01/07 01:13:40;;;;;;;14.27;8.88;;;3.60;99.90;;;;;;4924296;28;89155;-44
2022/01/07 01:16:05;;;;;;;19.13;9.05;;;3.60;99.90;;;;;;4923709;28;90006;-41
2022/01/07 01:18:31;;;;;;;13.23;7.82;;;3.60;99.90;;;;;;4923335;28;89872;-44
2022/01/07 01:20:57;;;;;;;13.35;6.45;;;3.60;99.90;;;;;;4924532;28;90263;-37
2022/01/07 01:23:23;;;;;;;14.02;9.07;;;3.60;99.90;;;;;;4924096;28;89794;-38
2022/01/07 01:25:48;;;;;;;12.52;9.43;;;3.50;99.90;;;;;;4924326;28;89477;-44
2022/01/07 01:28:14;;;;;;;23.77;9.25;;;3.50;99.90;;;;;;4923341;28;88122;-42
2022/01/07 01:30:39;;;;;;;11.40;7.88;;;3.30;99.90;;;;;;4923622;28;90398;-42
2022/01/07 01:33:05;;;;;;;14.13;8.50;;;3.20;99.90;;;;;;4922926;28;91171;-38
2022/01/07 01:35:31;;;;;;;16.30;10.20;;;3.30;99.90;;;;;;4923360;28;90791;-43
2022/01/07 01:37:56;;;;;;;17.88;9.23;;;3.20;99.90;;;;;;4921880;28;89487;-35
2022/01/07 01:40:23;;;;;;;26.10;9.85;;;3.10;99.90;;;;;;4922879;28;90701;-39
2022/01/07 01:42:52;;;;;;;12.45;8.10;;;3.10;99.90;;;;;;4923783;28;89329;-36
2022/01/07 01:45:18;;;;;;;21.88;8.88;;;3.10;99.90;;;;;;4923555;28;89560;-41
2022/01/07 01:47:44;;;;;;;14.00;9.00;;;3.00;99.90;;;;;;4923699;28;89314;-40
2022/01/07 01:50:11;;;;;;;15.55;8.88;;;3.00;99.90;;;;;;4923150;28;90479;-43
2022/01/07 01:52:37;;;;;;;14.68;8.70;;;3.00;99.90;;;;;;4923245;28;89712;-36
2022/01/07 01:55:04;;;;;;;11.25;8.35;;;3.00;99.90;;;;;;4922897;28;89256;-40
2022/01/07 01:57:31;;;;;;;22.63;10.13;;;3.00;99.90;;;;;;4922521;28;89048;-36
2022/01/07 01:59:58;;;;;;;16.25;9.75;;;2.90;99.90;;;;;;4923418;28;89762;-38
2022/01/07 02:02:24;;;;;;;16.27;8.02;;;2.90;99.90;;;;;;4923321;28;89628;-37
2022/01/07 02:04:49;;;;;;;16.65;9.63;;;2.90;99.90;;;;;;4922658;28;89462;-38
2022/01/07 02:07:15;;;;;;;12.23;9.80;;;2.90;99.90;;;;;;4923173;28;88365;-39
2022/01/07 02:09:40;;;;;;;17.08;10.07;;;2.90;99.90;;;;;;4923154;28;89993;-37
2022/01/07 02:12:08;;;;;;;15.32;9.07;;;2.90;99.90;;;;;;4923363;28;89621;-35
2022/01/07 02:14:34;;;;;;;15.43;8.98;;;2.80;99.90;;;;;;4922863;28;91102;-35
2022/01/07 02:17:07;;;;;;;13.70;9.85;;;2.90;99.90;;;;;;4922996;28;88981;-40
2022/01/07 02:19:34;;;;;;;21.98;10.25;;;2.90;99.90;;;;;;4922640;28;89303;-38
2022/01/07 02:22:00;;;;;;;18.40;10.98;;;2.90;99.90;;;;;;4921781;28;90668;-40
2022/01/07 02:24:25;;;;;;;16.33;9.05;;;2.80;99.90;;;;;;4921730;28;89764;-44
2022/01/07 02:26:52;;;;;;;11.18;8.80;;;2.80;99.90;;;;;;4922464;28;87953;-38
2022/01/07 02:29:17;;;;;;;25.23;11.38;;;3.00;99.90;;;;;;4922055;28;90440;-42
2022/01/07 02:31:43;;;;;;;11.30;8.57;;;2.90;99.90;;;;;;4922570;28;89792;-37
2022/01/07 02:34:08;;;;;;;12.95;9.43;;;2.90;99.90;;;;;;4922565;28;89567;-38
2022/01/07 02:36:34;;;;;;;17.92;10.40;;;2.80;99.90;;;;;;4922970;28;88404;-37
2022/01/07 02:38:59;;;;;;;15.25;10.98;;;2.80;99.90;;;;;;4922355;28;91115;-41
2022/01/07 02:41:26;;;;;;;20.20;11.32;;;2.80;99.90;;;;;;4920529;28;90007;-40
2022/01/07 02:43:52;;;;;;;17.85;10.52;;;2.80;99.90;;;;;;4922352;28;89569;-41
2022/01/07 02:46:18;;;;;;;15.77;10.18;;;2.70;99.90;;;;;;4921503;28;87965;-39
2022/01/07 02:48:43;;;;;;;16.25;10.98;;;2.70;99.90;;;;;;4922047;28;90516;-36
2022/01/07 02:51:09;;;;;;;21.05;13.27;;;2.70;99.90;;;;;;4920694;28;90845;-38
2022/01/07 02:53:35;;;;;;;14.73;11.57;;;2.70;99.90;;;;;;4921886;28;89708;-34
2022/01/07 02:56:00;;;;;;;25.02;12.65;;;2.70;99.90;;;;;;4922011;28;88862;-39
2022/01/07 02:58:26;;;;;;;26.98;12.93;;;2.70;99.90;;;;;;4920775;28;89484;-38
2022/01/07 03:00:52;;;;;;;12.60;9.80;;;2.70;99.90;;;;;;4922349;28;88933;-34
2022/01/07 03:03:17;;;;;;;17.48;12.00;;;2.70;99.90;;;;;;4922302;28;89494;-36
2022/01/07 03:05:43;;;;;;;15.70;11.30;;;2.80;99.90;;;;;;4922435;28;89923;-34
2022/01/07 03:08:10;;;;;;;12.85;11.00;;;2.70;99.90;;;;;;4921983;28;89891;-43
2022/01/07 03:10:35;;;;;;;15.65;11.98;;;2.70;99.90;;;;;;4920925;28;90500;-37
2022/01/07 03:13:03;;;;;;;17.08;13.07;;;2.70;99.90;;;;;;4921930;28;90325;-37
2022/01/07 03:15:30;;;;;;;22.23;13.33;;;2.60;99.90;;;;;;4921852;28;88380;-41
2022/01/07 03:17:56;;;;;;;22.33;12.55;;;2.70;99.90;;;;;;4921148;28;90245;-41
2022/01/07 03:20:22;;;;;;;23.50;12.93;;;2.70;99.90;;;;;;4921717;28;89586;-44
2022/01/07 03:22:49;;;;;;;20.38;13.35;;;2.60;99.90;;;;;;4921635;28;89810;-38
2022/01/07 03:25:16;;;;;;;15.38;13.32;;;2.60;99.90;;;;;;4921282;28;89518;-45
2022/01/07 03:27:42;;;;;;;20.70;14.23;;;2.60;99.90;;;;;;4921201;28;90563;-38
2022/01/07 03:30:09;;;;;;;19.15;14.13;;;2.60;99.90;;;;;;4921689;28;91311;-35
2022/01/07 03:32:35;;;;;;;19.70;13.55;;;2.60;99.90;;;;;;4903779;28;88862;-39
2022/01/07 03:35:01;;;;;;;16.27;13.23;;;2.50;99.90;;;;;;4921658;28;90487;-40
2022/01/07 03:37:26;;;;;;;19.35;13.00;;;2.60;99.90;;;;;;4921089;28;90367;-34
2022/01/07 03:39:52;;;;;;;14.02;12.55;;;2.60;99.90;;;;;;4921270;28;89483;-41
2022/01/07 03:42:18;;;;;;;22.30;13.75;;;2.70;99.90;;;;;;4921374;28;89614;-36
2022/01/07 03:44:44;;;;;;;20.02;13.43;;;2.60;99.90;;;;;;4921668;28;88036;-34
2022/01/07 03:47:10;;;;;;;17.35;13.70;;;2.60;99.90;;;;;;4920855;28;90097;-40
2022/01/07 03:49:35;;;;;;;16.48;13.88;;;2.60;99.90;;;;;;4920616;28;89338;-38
2022/01/07 03:52:02;;;;;;;19.67;14.00;;;2.60;99.90;;;;;;4920985;28;89501;-39
2022/01/07 03:54:27;;;;;;;19.70;12.73;;;2.60;99.90;;;;;;4921356;28;88124;-36
2022/01/07 03:56:53;;;;;;;16.98;12.13;;;2.60;99.90;;;;;;4920792;28;90302;-37
2022/01/07 03:59:18;;;;;;;18.00;13.70;;;2.60;99.90;;;;;;4920511;28;90671;-35
2022/01/07 04:01:44;;;;;;;17.42;13.93;;;2.70;99.90;;;;;;4920960;28;90365;-39
2022/01/07 04:04:09;;;;;;;17.90;12.15;;;2.60;99.90;;;;;;4927680;28;87752;-34
2022/01/07 04:06:35;;;;;;;15.30;13.00;;;2.70;99.90;;;;;;4927369;28;90323;-35
2022/01/07 04:09:00;;;;;;;15.98;12.90;;;2.60;99.90;;;;;;4927202;28;89704;-40
2022/01/07 04:11:26;;;;;;;20.02;14.73;;;2.70;99.90;;;;;;4927583;28;88295;-34
2022/01/07 04:13:52;;;;;;;20.35;11.68;;;2.70;99.90;;;;;;4927033;28;90331;-33
2022/01/07 04:16:17;;;;;;;17.98;13.45;;;2.70;99.90;;;;;;4927394;28;90452;-40
2022/01/07 04:18:43;;;;;;;20.25;14.30;;;2.70;99.90;;;;;;4926656;28;89614;-38
2022/01/07 04:21:09;;;;;;;15.35;12.50;;;2.70;99.90;;;;;;4926274;28;91013;-44
2022/01/07 04:23:35;;;;;;;16.92;12.40;;;2.70;99.90;;;;;;4926405;28;90422;-38
2022/01/07 04:26:00;;;;;;;16.67;13.20;;;2.80;99.90;;;;;;4926848;28;90340;-38
2022/01/07 04:28:26;;;;;;;18.42;13.40;;;3.00;99.90;;;;;;4926947;28;90002;-37
2022/01/07 04:30:52;;;;;;;16.40;12.48;;;2.90;99.90;;;;;;4927081;28;89364;-39
2022/01/07 04:33:26;;;;;;;18.17;14.18;;;2.90;99.90;;;;;;4926826;28;87959;-39
2022/01/07 04:35:54;;;;;;;15.18;12.93;;;2.80;99.90;;;;;;4926579;28;90293;-42
2022/01/07 04:38:19;;;;;;;12.88;11.52;;;2.90;99.90;;;;;;4926021;28;89976;-40
2022/01/07 04:40:45;;;;;;;21.73;14.48;;;2.90;99.90;;;;;;4909751;28;89328;-43
2022/01/07 04:43:12;;;;;;;17.05;12.23;;;2.90;99.90;;;;;;4927006;28;88445;-40
2022/01/07 04:45:38;;;;;;;16.27;11.25;;;2.90;99.90;;;;;;4926913;28;89781;-37
2022/01/07 04:48:04;;;;;;;14.68;13.18;;;2.90;99.90;;;;;;4924780;28;90752;-37
2022/01/07 04:50:31;;;;;;;15.20;13.45;;;2.90;99.90;;;;;;4925862;28;91630;-41
2022/01/07 04:52:57;;;;;;;14.45;11.55;;;3.00;99.90;;;;;;4927192;28;89146;-45
2022/01/07 04:55:29;;;;;;;14.75;10.32;;;3.00;99.90;;;;;;4926900;28;91702;-38
2022/01/07 04:57:55;;;;;;;14.90;12.25;;;3.00;99.90;;;;;;4927124;28;90241;-36
2022/01/07 05:00:23;;;;;;;16.60;11.88;;;3.00;99.90;;;;;;4926272;28;89680;-38
2022/01/07 05:02:49;;;;;;;14.35;12.85;;;2.90;99.90;;;;;;4926393;28;89486;-38
2022/01/07 05:05:15;;;;;;;13.77;11.77;;;2.90;99.90;;;;;;4926792;28;90572;-44
2022/01/07 05:07:41;;;;;;;17.63;12.48;;;2.90;99.90;;;;;;4909459;28;89816;-39
2022/01/07 05:10:09;;;;;;;14.73;11.95;;;2.90;99.90;;;;;;4926522;28;90105;-43
2022/01/07 05:12:35;;;;;;;;;;;2.90;99.90;;;;;;4926267;28;89347;-39
2022/01/07 05:15:01;;;;;;;15.45;13.02;;;2.90;99.90;;;;;;4925608;28;90598;-42
2022/01/07 05:17:27;;;;;;;13.93;12.35;;;2.90;99.90;;;;;;4922234;28;89593;-33
2022/01/07 05:19:52;;;;;;;13.68;10.57;;;2.90;99.90;;;;;;4923485;28;90300;-37
2022/01/07 05:22:18;;;;;;;13.93;10.32;;;3.00;99.90;;;;;;4922982;28;88159;-38
2022/01/07 05:24:43;;;;;;;14.95;11.07;;;3.00;99.90;;;;;;4923252;28;91581;-33
2022/01/07 05:27:09;;;;;;;18.15;11.77;;;2.90;99.90;;;;;;4922706;28;89565;-34
2022/01/07 05:29:35;;;;;;;12.50;11.23;;;3.00;99.90;;;;;;4923239;28;89987;-41
2022/01/07 05:32:03;;;;;;;17.70;11.70;;;2.90;99.90;;;;;;4906015;28;89447;-35
2022/01/07 05:34:28;;;;;;;12.00;10.23;;;2.90;99.90;;;;;;4922687;28;91422;-39
2022/01/07 05:36:54;;;;;;;15.70;11.15;;;3.00;99.90;;;;;;4922590;28;90110;-37
2022/01/07 05:39:20;;;;;;;11.52;10.10;;;3.00;99.90;;;;;;4923536;28;90716;-38
2022/01/07 05:41:45;;;;;;;13.02;11.23;;;3.00;99.90;;;;;;4922846;28;87954;-38
2022/01/07 05:44:11;;;;;;;12.23;10.95;;;3.00;99.90;;;;;;4923579;28;90096;-40
2022/01/07 05:46:36;;;;;;;16.55;11.52;;;3.00;99.90;;;;;;4922533;28;89698;-40
2022/01/07 05:49:02;;;;;;;14.13;10.38;;;3.00;99.90;;;;;;4923050;28;89273;-37
2022/01/07 05:51:27;;;;;;;13.40;10.95;;;3.00;99.90;;;;;;4923056;28;88768;-40
2022/01/07 05:53:53;;;;;;;15.07;9.20;;;3.00;99.90;;;;;;4922581;28;89339;-37
2022/01/07 05:56:18;;;;;;;12.52;9.60;;;3.00;99.90;;;;;;4905763;28;90792;-42
2022/01/07 05:58:44;;;;;;;9.48;7.97;;;3.10;99.90;;;;;;4922973;28;93345;-41
2022/01/07 06:01:11;;;;;;;11.07;9.40;;;3.10;99.90;;;;;;4923357;28;90562;-39
2022/01/07 06:03:37;;;;;;;9.02;8.07;;;3.10;99.90;;;;;;4922490;28;90309;-42
2022/01/07 06:06:03;;;;;;;13.52;10.25;;;3.20;99.90;;;;;;4923530;28;90047;-38
2022/01/07 06:08:28;;;;;;;15.57;10.48;;;3.10;99.90;;;;;;4922709;28;89616;-40
2022/01/07 06:10:54;;;;;;;13.10;11.18;;;3.10;99.90;;;;;;4922770;28;89622;-39
2022/01/07 06:13:20;;;;;;;12.55;10.20;;;3.10;99.90;;;;;;4922093;28;88890;-38
2022/01/07 06:15:45;;;;;;;10.65;8.65;;;3.10;99.90;;;;;;4922419;28;90284;-36
2022/01/07 06:18:11;;;;;;;10.88;9.25;;;3.10;99.90;;;;;;4923770;28;88594;-43
2022/01/07 06:20:36;;;;;;;14.50;9.75;;;3.20;99.90;;;;;;4923303;28;89631;-42
2022/01/07 06:23:02;;;;;;;12.60;9.90;;;3.10;99.90;;;;;;4922728;28;90614;-44
2022/01/07 06:25:28;;;;;;;9.10;8.13;;;3.10;99.90;;;;;;4921801;28;90532;-42
2022/01/07 06:27:54;;;;;;;11.07;9.93;;;3.10;99.90;;;;;;4922130;28;89490;-34
2022/01/07 06:30:19;;;;;;;9.27;8.30;;;3.10;99.90;;;;;;4923544;28;89160;-42
2022/01/07 06:32:45;;;;;;;10.15;9.15;;;3.10;99.90;;;;;;4922393;28;90491;-42
2022/01/07 06:35:11;;;;;;;10.68;9.57;;;3.10;99.90;;;;;;4922352;28;90400;-42
2022/01/07 06:37:38;;;;;;;11.52;8.90;;;3.10;99.90;;;;;;4905041;28;90160;-43
2022/01/07 06:40:05;;;;;;;11.90;10.02;;;3.10;99.90;;;;;;4922844;28;88765;-38
2022/01/07 06:42:30;;;;;;;10.93;9.98;;;3.10;99.90;;;;;;4921893;28;90673;-42
2022/01/07 06:44:56;;;;;;;10.70;9.27;;;3.10;99.90;;;;;;4922537;28;90156;-33
2022/01/07 06:47:22;;;;;;;10.98;9.88;;;3.10;99.90;;;;;;4922254;28;89407;-37
2022/01/07 06:49:48;;;;;;;13.20;10.30;;;3.10;99.90;;;;;;4922443;28;90322;-37
2022/01/07 06:52:14;;;;;;;10.48;9.30;;;3.30;99.90;;;;;;4921440;28;90314;-42
2022/01/07 06:54:39;;;;;;;12.20;10.70;;;3.30;99.90;;;;;;4923330;28;90222;-42
2022/01/07 06:57:05;;;;;;;12.98;8.90;;;3.30;99.90;;;;;;4921546;28;89517;-35
2022/01/07 06:59:31;;;;;;;14.20;10.63;;;3.30;99.90;;;;;;4921922;28;88371;-34
2022/01/07 07:01:57;;;;;;;13.63;9.98;;;3.20;99.90;;;;;;4921790;28;90396;-37
2022/01/07 07:04:23;;;;;;;9.77;8.68;;;3.20;99.90;;;;;;4920929;28;90164;-39
2022/01/07 07:06:49;;;;;;;10.52;9.45;;;3.20;99.90;;;;;;4921887;28;89413;-39
2022/01/07 07:09:17;;;;;;;10.98;9.98;;;3.20;99.90;;;;;;4922762;28;89551;-43
2022/01/07 07:11:43;;;;;;;11.55;9.93;;;3.20;99.90;;;;;;4921723;28;89998;-43
2022/01/07 07:14:12;;;;;;;11.30;10.20;;;3.20;99.90;;;;;;4922008;28;90438;-45
2022/01/07 07:16:38;;;;;;;12.95;10.15;;;3.20;99.90;;;;;;4921091;28;90558;-43
2022/01/07 07:19:04;;;;;;;13.43;11.20;;;3.30;99.90;;;;;;4921856;28;88443;-34
2022/01/07 07:21:30;;;;;;;13.35;11.18;;;3.30;99.90;;;;;;4920979;28;90386;-37
2022/01/07 07:23:55;;;;;;;13.75;12.45;;;3.20;99.90;;;;;;4921371;28;91159;-38
2022/01/07 07:26:21;;;;;;;11.10;9.75;;;3.20;99.90;;;;;;4921334;28;88581;-41
2022/01/07 07:28:47;;;;;;;15.85;11.18;;;3.30;99.90;;;;;;4922002;28;90124;-35
2022/01/07 07:31:14;;;;;;;12.07;9.77;;;3.30;99.90;;;;;;4922018;28;90934;-38
2022/01/07 07:36:27;;;;;;;13.00;10.60;;;3.40;99.90;;;;;;4921680;28;90105;-35
2022/01/07 07:39:02;;;;;;;12.95;9.73;;;3.30;99.90;;;;;;4920882;28;88484;-41
2022/01/07 07:41:29;;;;;;;12.35;10.93;;;3.40;99.90;;;;;;4921787;28;89940;-40
2022/01/07 07:43:56;;;;;;;13.68;11.13;;;3.40;99.90;;;;;;4920550;28;92115;-38
2022/01/07 07:46:23;;;;;;;12.50;11.23;;;3.40;99.90;;;;;;4920920;28;90049;-44
2022/01/07 07:48:51;;;;;;;13.13;11.93;;;3.30;99.90;;;;;;4921484;28;88435;-41
2022/01/07 07:51:17;;;;;;;11.93;10.83;;;3.40;99.90;;;;;;4920950;28;89329;-37
2022/01/07 07:53:42;;;;;;;16.85;12.07;;;3.40;99.90;;;;;;4915405;28;89479;-38
2022/01/07 07:56:11;;;;;;;22.20;11.85;;;3.40;99.90;;;;;;4901838;28;88944;-42
2022/01/07 07:58:36;;;;;;;14.60;13.05;;;3.40;99.90;;;;;;4900962;28;87811;-36
2022/01/07 08:01:02;;;;;;;15.05;13.15;;;3.40;99.90;;;;;;4902442;28;91389;-39
2022/01/07 08:03:28;;;;;;;17.92;13.93;;;3.50;99.90;;;;;;4901044;28;91229;-38
2022/01/07 08:05:54;;;;;;;19.00;14.52;;;3.50;99.90;;;;;;4901051;28;90354;-46
2022/01/07 08:08:19;;;;;;;16.13;13.82;;;3.40;99.90;;;;;;4884358;28;89526;-33
2022/01/07 08:10:51;;;;;;;15.98;14.35;;;3.50;99.90;;;;;;4901369;28;90251;-36
2022/01/07 08:13:30;;;;;;;16.10;14.38;;;3.60;99.90;;;;;;4901260;28;90481;-40
2022/01/07 08:15:58;;;;;;;16.33;14.57;;;3.50;99.90;;;;;;4901171;28;89484;-37
2022/01/07 08:18:31;;;;;;;15.82;13.93;;;3.50;99.90;;;;;;4900880;28;88649;-43
2022/01/07 08:21:01;;;;;;;15.70;13.50;;;3.50;99.90;;;;;;4903550;28;90641;-44
2022/01/07 08:23:27;;;;;;;18.52;14.68;;;3.60;99.90;;;;;;4878305;28;89706;-38
2022/01/07 08:25:53;;;;;;;16.88;15.15;;;3.50;99.90;;;;;;4920360;28;88866;-37
2022/01/07 08:28:22;;;;;;;19.13;14.93;;;3.50;99.90;;;;;;4919856;28;88979;-41
2022/01/07 08:36:26;;;;;;;17.05;15.25;;;3.60;99.90;;;;;;4911750;28;89881;-41
2022/01/07 08:38:52;;;;;;;18.33;16.23;;;3.60;99.90;;;;;;4901970;28;88549;-35
2022/01/07 08:41:21;;;;;;;21.50;16.45;;;3.70;99.90;;;;;;4900239;28;90603;-43
2022/01/07 08:43:46;;;;;;;21.10;18.50;;;3.70;99.90;;;;;;4900651;28;89835;-37
2022/01/07 08:46:12;;;;;;;23.73;16.95;;;3.80;99.90;;;;;;4901624;28;89031;-44
2022/01/07 08:48:38;;;;;;;25.13;17.75;;;3.70;99.90;;;;;;4900997;28;89193;-39
2022/01/07 08:51:05;;;;;;;22.80;16.88;;;3.70;99.90;;;;;;4904057;28;89936;-35
2022/01/07 08:53:31;;;;;;;21.90;18.25;;;3.70;99.90;;;;;;4903854;28;90195;-41
2022/01/07 08:55:59;;;;;;;19.52;16.58;;;3.80;99.90;;;;;;4903277;28;90595;-37
2022/01/07 08:58:26;;;;;;;26.48;17.95;;;3.80;99.90;;;;;;4886190;28;87994;-41
2022/01/07 09:00:51;;;;;;;24.35;18.63;;;3.80;99.90;;;;;;4904516;28;90975;-37
2022/01/07 09:03:17;;;;;;;24.08;18.92;;;3.80;99.90;;;;;;4904152;28;90940;-41
2022/01/07 09:05:43;;;;;;;24.05;18.33;;;3.80;99.90;;;;;;4903880;28;89348;-46
2022/01/07 09:08:11;;;;;;;21.90;18.20;;;3.80;99.90;;;;;;4904436;28;88795;-41
2022/01/07 09:10:38;;;;;;;24.08;19.52;;;3.90;99.90;;;;;;4903406;28;90254;-36
2022/01/07 09:13:04;;;;;;;27.98;18.98;;;3.90;99.90;;;;;;4904375;28;88992;-44
2022/01/07 09:15:29;;;;;;;24.08;17.63;;;4.00;99.90;;;;;;4903962;28;89491;-41
2022/01/07 09:17:55;;;;;;;28.25;19.13;;;4.10;99.90;;;;;;4886334;28;90315;-37
2022/01/07 09:20:21;;;;;;;29.58;19.35;;;4.20;99.90;;;;;;4918706;28;91406;-34
2022/01/07 09:22:47;;;;;;;33.13;21.38;;;4.20;99.90;;;;;;4920878;28;89885;-40
2022/01/07 09:25:13;;;;;;;27.35;18.48;;;4.20;99.90;;;;;;4920993;28;89311;-40
2022/01/07 09:27:40;;;;;;;29.75;20.90;;;4.30;99.90;;;;;;4921617;28;88694;-40
2022/01/07 09:30:07;;;;;;;22.42;18.67;;;4.40;99.90;;;;;;4928589;28;90008;-36
2022/01/07 09:32:33;;;;;;;20.88;18.70;;;4.50;99.90;;;;;;4919933;28;90831;-45
2022/01/07 09:34:58;;;;;;;28.88;20.90;;;4.50;99.90;;;;;;4920554;28;89892;-39
2022/01/07 09:37:24;;;;;;;25.55;21.70;;;4.60;99.90;;;;;;4920610;28;89470;-37
2022/01/07 09:39:50;;;;;;;26.48;19.95;;;4.60;99.90;;;;;;4920422;28;90150;-42
2022/01/07 09:42:15;;;;;;;31.00;20.42;;;4.60;99.90;;;;;;4919255;28;90699;-43
2022/01/07 09:44:43;;;;;;;30.25;22.23;;;4.70;99.90;;;;;;4920200;28;90782;-39
2022/01/07 09:47:11;;;;;;;30.35;22.63;;;4.70;99.90;;;;;;4921073;28;88597;-35
2022/01/07 09:49:37;;;;;;;25.25;22.60;;;4.70;99.90;;;;;;4920268;28;90442;-37
2022/01/07 09:52:04;;;;;;;23.90;19.05;;;4.70;99.90;;;;;;4920580;28;90164;-40
2022/01/07 09:54:32;;;;;;;24.67;20.58;;;4.80;99.90;;;;;;4920270;28;89815;-45
2022/01/07 09:56:58;;;;;;;23.23;20.53;;;4.80;99.90;;;;;;4920447;28;87615;-41
2022/01/07 09:59:23;;;;;;;23.52;20.35;;;4.90;99.90;;;;;;4920234;28;90056;-41
2022/01/07 10:02:06;;;;;;;26.73;21.55;;;4.90;99.90;;;;;;4920856;28;90036;-38
2022/01/07 10:04:37;;;;;;;32.97;22.92;;;4.90;99.90;;;;;;4920029;28;89539;-38
2022/01/07 10:07:14;;;;;;;26.23;22.50;;;4.90;99.90;;;;;;4920066;28;90348;-36
2022/01/07 10:09:40;;;;;;;27.90;22.00;;;4.90;99.90;;;;;;4920276;28;89689;-35
2022/01/07 10:12:07;;;;;;;28.35;21.55;;;4.90;99.90;;;;;;4920825;28;90831;-35
2022/01/07 10:14:36;;;;;;;25.15;20.20;;;4.90;99.90;;;;;;4920992;28;89088;-38
2022/01/07 10:17:02;;;;;;;;;;;5.00;99.90;;;;;;4921238;28;89347;-41
2022/01/07 10:19:28;;;;;;;25.00;21.63;;;4.90;99.90;;;;;;4894344;28;90218;-39
2022/01/07 10:22:00;;;;;;;28.20;21.33;;;5.00;99.90;;;;;;4901582;28;89890;-37
2022/01/07 10:24:25;;;;;;;35.97;23.25;;;4.90;99.90;;;;;;4920236;28;89390;-43
2022/01/07 10:27:12;;;;;;;26.20;20.75;;;5.00;99.90;;;;;;4920471;28;89270;-39
2022/01/07 10:29:43;;;;;;;31.55;22.70;;;5.10;99.90;;;;;;4919555;28;90703;-40
2022/01/07 10:32:27;;;;;;;23.70;20.75;;;5.10;99.90;;;;;;4919770;28;90906;-40
2022/01/07 10:35:07;;;;;;;25.88;20.48;;;5.10;99.90;;;;;;4918979;28;90168;-41
2022/01/07 10:37:34;;;;;;;30.80;20.23;;;5.10;99.90;;;;;;4920134;28;88416;-37
2022/01/07 10:40:00;;;;;;;24.88;19.55;;;5.10;99.90;;;;;;4919974;28;90831;-43
2022/01/07 10:42:27;;;;;;;28.92;19.08;;;5.10;99.90;;;;;;4919684;28;89689;-41
2022/01/07 10:45:01;;;;;;;27.65;20.20;;;5.10;99.90;;;;;;4919600;28;89918;-38
2022/01/07 10:47:30;;;;;;;31.00;20.48;;;5.10;99.90;;;;;;4920392;28;90214;-40
2022/01/07 10:50:21;;;;;;;25.63;20.58;;;5.10;99.90;;;;;;4920725;28;90126;-42
2022/01/07 10:52:46;;;;;;;21.30;16.67;;;5.10;99.90;;;;;;4910455;28;90614;-38
2022/01/07 10:57:56;;;;;;;22.08;16.52;;;5.10;99.90;;;;;;4879340;28;90006;-42
2022/01/07 11:00:22;;;;;;;21.55;15.10;;;5.10;99.90;;;;;;4881251;28;91132;-37
2022/01/07 11:02:48;;;;;;;16.33;11.65;;;5.00;99.90;;;;;;4881262;28;89569;-35
2022/01/07 11:05:14;;;;;;;21.25;14.30;;;5.00;99.90;;;;;;4881544;28;90073;-40
2022/01/07 11:07:39;;;;;;;13.13;9.23;;;5.00;99.90;;;;;;4881071;28;89270;-36
2022/01/07 11:10:07;;;;;;;16.73;9.77;;;5.10;99.90;;;;;;4881313;28;89549;-40
2022/01/07 11:12:34;;;;;;;18.87;9.30;;;5.00;99.90;;;;;;4880635;28;90222;-42
2022/01/07 11:15:02;;;;;;;14.10;7.63;;;4.90;99.90;;;;;;4882057;28;89767;-37
2022/01/07 11:17:29;;;;;;;10.30;7.60;;;4.90;99.90;;;;;;4881600;28;87658;-36
2022/01/07 11:19:59;;;;;;;15.63;7.47;;;4.80;99.90;;;;;;4881532;28;90217;-43
2022/01/07 11:22:27;;;;;;;11.73;9.20;;;4.80;99.90;;;;;;4880329;28;89387;-42
2022/01/07 11:24:59;;;;;;;14.65;10.82;;;4.80;99.90;;;;;;4882266;28;90701;-38
2022/01/07 11:27:27;;;;;;;13.88;11.23;;;4.80;99.90;;;;;;4864102;28;89209;-38
2022/01/07 11:30:11;;;;;;;16.57;14.10;;;4.80;99.90;;;;;;4880893;28;89227;-39
2022/01/07 11:32:48;;;;;;;15.85;12.73;;;4.90;99.90;;;;;;4880509;28;90551;-37
2022/01/07 11:35:19;;;;;;;18.83;12.38;;;4.90;99.90;;;;;;4880711;28;90056;-42
2022/01/07 11:37:51;;;;;;;13.70;12.30;;;4.90;99.90;;;;;;4881131;28;89631;-38
2022/01/07 11:40:29;;;;;;;15.10;12.18;;;4.90;99.90;;;;;;4881316;28;90223;-36
2022/01/07 11:42:57;;;;;;;15.13;11.98;;;4.90;99.90;;;;;;4881061;28;89617;-38
2022/01/07 11:45:34;;;;;;;16.50;13.50;;;5.00;99.90;;;;;;4879885;28;91112;-35
2022/01/07 11:48:08;;;;;;;19.70;13.65;;;5.00;99.90;;;;;;4880124;28;89377;-35
2022/01/07 11:50:44;;;;;;;16.60;12.90;;;4.90;99.90;;;;;;4880750;28;91239;-41
2022/01/07 11:53:10;;;;;;;16.02;12.98;;;4.90;99.90;;;;;;4880699;28;89128;-42
2022/01/07 11:55:36;;;;;;;20.10;13.50;;;4.90;99.90;;;;;;4880135;28;89706;-45
2022/01/07 11:58:05;;;;;;;19.30;13.85;;;4.90;99.90;;;;;;4880711;28;88335;-36
2022/01/07 12:00:52;;;;;;;21.63;15.57;;;4.90;99.90;;;;;;4881063;28;90382;-37
2022/01/07 12:03:38;;;;;;;21.17;16.33;;;4.90;99.90;;;;;;4880251;28;89935;-42
2022/01/07 12:06:26;;;;;;;21.48;16.08;;;4.90;99.90;;;;;;4880185;28;89925;-38
2022/01/07 12:09:04;;;;;;;25.63;17.65;;;5.00;99.90;;;;;;4880463;28;90071;-45
2022/01/07 12:11:33;;;;;;;20.02;15.35;;;5.00;99.90;;;;;;4878535;28;91169;-41
2022/01/07 12:13:59;;;;;;;19.92;15.80;;;5.10;99.90;;;;;;4876866;28;90767;-43
2022/01/07 12:16:27;;;;;;;13.13;11.20;;;5.20;99.90;;;;;;4818858;28;90707;-39
2022/01/07 12:19:17;;;;;;;14.87;10.47;;;5.20;99.90;;;;;;4879641;28;88270;-44
2022/01/07 12:21:53;;;;;;;15.63;11.18;;;5.20;99.90;;;;;;4879888;28;90078;-39
2022/01/07 12:24:25;;;;;;;14.68;9.55;;;5.20;99.90;;;;;;4881765;28;89708;-44
2022/01/07 12:27:23;;;;;;;9.65;5.60;;;5.20;99.90;;;;;;4884459;28;89285;-38
2022/01/07 12:29:50;;;;;;;;;;;5.30;99.90;;;;;;4884960;28;89791;-37
2022/01/07 12:32:18;;;;;;;5.88;3.08;;;5.20;99.90;;;;;;4885435;28;89456;-40
2022/01/07 12:34:50;;;;;;;3.22;2.35;;;5.20;99.90;;;;;;4883877;28;89980;-42
2022/01/07 12:37:18;;;;;;;5.22;2.78;;;5.20;99.90;;;;;;4883152;28;90358;-42
2022/01/07 12:39:49;;;;;;;;;;;5.10;99.90;;;;;;4884418;28;89940;-36
2022/01/07 12:42:15;;;;;;;3.08;1.95;;;5.20;99.90;;;;;;4884962;28;90635;-42
2022/01/07 12:44:54;;;;;;;6.60;1.90;;;5.10;99.90;;;;;;4865611;28;91223;-37
2022/01/07 12:47:22;;;;;;;7.35;2.78;;;5.10;99.90;;;;;;4883489;28;90299;-45
2022/01/07 12:49:56;;;;;;;8.02;1.58;;;4.90;99.90;;;;;;4884399;28;89124;-36
2022/01/07 12:52:26;;;;;;;5.97;2.20;;;4.80;99.90;;;;;;4883001;28;90776;-38